sensor_id;sensor_type;location;lat;lon;timestamp;P1;durP1;ratioP1;P2;durP2;ratioP2
24305;SDS011;12423;48.768;8.850;2024-01-16T00:00:01;4.20;;;2.08;;
24305;SDS011;12423;48.768;8.850;2024-01-16T00:02:31;2.72;;;1.27;;
24305;SDS011;12423;48.768;8.850;2024-01-16T00:04:59;6.70;;;1.95;;
24305;SDS011;12423;48.768;8.850;2024-01-16T00:07:27;4.72;;;2.13;;
24305;SDS011;12423;48.768;8.850;2024-01-16T00:09:55;5.45;;;2.20;;
24305;SDS011;12423;48.768;8.850;2024-01-16T00:12:22;5.20;;;2.20;;
24305;SDS011;12423;48.768;8.850;2024-01-16T00:14:50;6.18;;;2.08;;
24305;SDS011;12423;48.768;8.850;2024-01-16T00:17:18;4.47;;;2.17;;
24305;SDS011;12423;48.768;8.850;2024-01-16T00:19:48;6.45;;;1.92;;
24305;SDS011;12423;48.768;8.850;2024-01-16T00:24:43;6.10;;;2.00;;
24305;SDS011;12423;48.768;8.850;2024-01-16T00:27:11;4.63;;;2.05;;
24305;SDS011;12423;48.768;8.850;2024-01-16T00:29:39;5.35;;;2.00;;
24305;SDS011;12423;48.768;8.850;2024-01-16T00:32:07;5.35;;;2.20;;
24305;SDS011;12423;48.768;8.850;2024-01-16T00:34:35;3.53;;;1.85;;
24305;SDS011;12423;48.768;8.850;2024-01-16T00:37:04;5.50;;;2.17;;
24305;SDS011;12423;48.768;8.850;2024-01-16T00:41:59;3.88;;;1.65;;
24305;SDS011;12423;48.768;8.850;2024-01-16T00:44:28;6.53;;;2.60;;
24305;SDS011;12423;48.768;8.850;2024-01-16T00:46:56;4.50;;;2.22;;
24305;SDS011;12423;48.768;8.850;2024-01-16T00:49:24;4.20;;;2.60;;
24305;SDS011;12423;48.768;8.850;2024-01-16T00:51:51;7.80;;;2.20;;
24305;SDS011;12423;48.768;8.850;2024-01-16T00:54:20;7.50;;;2.63;;
24305;SDS011;12423;48.768;8.850;2024-01-16T00:56:48;3.47;;;1.90;;
24305;SDS011;12423;48.768;8.850;2024-01-16T00:59:17;4.65;;;2.53;;
24305;SDS011;12423;48.768;8.850;2024-01-16T01:01:45;5.28;;;2.70;;
24305;SDS011;12423;48.768;8.850;2024-01-16T01:04:12;4.07;;;1.95;;
24305;SDS011;12423;48.768;8.850;2024-01-16T01:06:40;4.40;;;2.17;;
24305;SDS011;12423;48.768;8.850;2024-01-16T01:09:08;5.55;;;2.03;;
24305;SDS011;12423;48.768;8.850;2024-01-16T01:11:39;6.03;;;2.47;;
24305;SDS011;12423;48.768;8.850;2024-01-16T01:16:34;8.07;;;1.95;;
24305;SDS011;12423;48.768;8.850;2024-01-16T01:19:02;2.97;;;1.50;;
24305;SDS011;12423;48.768;8.850;2024-01-16T01:21:30;4.32;;;1.90;;
24305;SDS011;12423;48.768;8.850;2024-01-16T01:23:58;4.03;;;2.35;;
24305;SDS011;12423;48.768;8.850;2024-01-16T01:26:26;5.35;;;2.58;;
24305;SDS011;12423;48.768;8.850;2024-01-16T01:28:55;5.25;;;2.35;;
24305;SDS011;12423;48.768;8.850;2024-01-16T01:31:22;3.53;;;1.88;;
24305;SDS011;12423;48.768;8.850;2024-01-16T01:33:51;4.72;;;2.50;;
24305;SDS011;12423;48.768;8.850;2024-01-16T01:36:18;9.70;;;2.50;;
24305;SDS011;12423;48.768;8.850;2024-01-16T01:38:46;6.40;;;2.35;;
24305;SDS011;12423;48.768;8.850;2024-01-16T01:41:14;5.10;;;2.45;;
24305;SDS011;12423;48.768;8.850;2024-01-16T01:43:42;3.60;;;1.48;;
24305;SDS011;12423;48.768;8.850;2024-01-16T01:46:12;4.15;;;1.63;;
24305;SDS011;12423;48.768;8.850;2024-01-16T01:48:42;7.50;;;2.55;;
24305;SDS011;12423;48.768;8.850;2024-01-16T01:51:23;5.72;;;2.08;;
24305;SDS011;12423;48.768;8.850;2024-01-16T01:53:51;5.57;;;2.50;;
24305;SDS011;12423;48.768;8.850;2024-01-16T01:56:19;4.82;;;2.28;;
24305;SDS011;12423;48.768;8.850;2024-01-16T01:58:49;3.97;;;2.37;;
24305;SDS011;12423;48.768;8.850;2024-01-16T02:01:21;6.13;;;2.28;;
24305;SDS011;12423;48.768;8.850;2024-01-16T02:03:50;5.65;;;2.25;;
24305;SDS011;12423;48.768;8.850;2024-01-16T02:06:19;5.18;;;2.88;;
24305;SDS011;12423;48.768;8.850;2024-01-16T02:08:47;5.15;;;2.25;;
24305;SDS011;12423;48.768;8.850;2024-01-16T02:11:16;4.93;;;2.35;;
24305;SDS011;12423;48.768;8.850;2024-01-16T02:13:44;4.50;;;2.10;;
24305;SDS011;12423;48.768;8.850;2024-01-16T02:16:18;4.90;;;2.58;;
24305;SDS011;12423;48.768;8.850;2024-01-16T02:18:48;8.50;;;3.08;;
24305;SDS011;12423;48.768;8.850;2024-01-16T02:21:17;4.10;;;2.08;;
24305;SDS011;12423;48.768;8.850;2024-01-16T02:23:49;5.72;;;2.63;;
24305;SDS011;12423;48.768;8.850;2024-01-16T02:28:45;3.30;;;1.58;;
24305;SDS011;12423;48.768;8.850;2024-01-16T02:31:13;3.65;;;2.22;;
24305;SDS011;12423;48.768;8.850;2024-01-16T02:33:40;4.22;;;2.15;;
24305;SDS011;12423;48.768;8.850;2024-01-16T02:36:08;3.83;;;2.05;;
24305;SDS011;12423;48.768;8.850;2024-01-16T02:38:36;6.13;;;2.70;;
24305;SDS011;12423;48.768;8.850;2024-01-16T02:41:06;5.15;;;2.20;;
24305;SDS011;12423;48.768;8.850;2024-01-16T02:43:34;4.70;;;1.90;;
24305;SDS011;12423;48.768;8.850;2024-01-16T02:46:02;5.28;;;2.30;;
24305;SDS011;12423;48.768;8.850;2024-01-16T02:48:30;4.65;;;2.03;;
24305;SDS011;12423;48.768;8.850;2024-01-16T02:50:58;5.75;;;2.05;;
24305;SDS011;12423;48.768;8.850;2024-01-16T02:53:26;4.45;;;2.00;;
24305;SDS011;12423;48.768;8.850;2024-01-16T02:55:55;7.75;;;2.50;;
24305;SDS011;12423;48.768;8.850;2024-01-16T02:58:26;5.53;;;2.42;;
24305;SDS011;12423;48.768;8.850;2024-01-16T03:00:54;5.72;;;2.38;;
24305;SDS011;12423;48.768;8.850;2024-01-16T03:03:22;6.10;;;2.13;;
24305;SDS011;12423;48.768;8.850;2024-01-16T03:09:04;4.18;;;1.70;;
24305;SDS011;12423;48.768;8.850;2024-01-16T03:11:33;3.78;;;1.65;;
24305;SDS011;12423;48.768;8.850;2024-01-16T03:14:02;8.52;;;1.92;;
24305;SDS011;12423;48.768;8.850;2024-01-16T03:18:57;2.80;;;1.60;;
24305;SDS011;12423;48.768;8.850;2024-01-16T03:21:25;3.97;;;1.80;;
24305;SDS011;12423;48.768;8.850;2024-01-16T03:23:53;4.50;;;2.30;;
24305;SDS011;12423;48.768;8.850;2024-01-16T03:26:21;5.53;;;2.20;;
24305;SDS011;12423;48.768;8.850;2024-01-16T03:28:49;6.35;;;2.38;;
24305;SDS011;12423;48.768;8.850;2024-01-16T03:31:18;4.28;;;2.33;;
24305;SDS011;12423;48.768;8.850;2024-01-16T03:33:47;4.68;;;2.50;;
24305;SDS011;12423;48.768;8.850;2024-01-16T03:36:15;7.05;;;2.10;;
24305;SDS011;12423;48.768;8.850;2024-01-16T03:38:43;6.45;;;2.67;;
24305;SDS011;12423;48.768;8.850;2024-01-16T03:41:11;7.65;;;2.55;;
24305;SDS011;12423;48.768;8.850;2024-01-16T03:43:39;6.82;;;2.03;;
24305;SDS011;12423;48.768;8.850;2024-01-16T03:46:07;4.20;;;2.13;;
24305;SDS011;12423;48.768;8.850;2024-01-16T03:48:36;5.15;;;1.80;;
24305;SDS011;12423;48.768;8.850;2024-01-16T03:53:33;5.85;;;2.65;;
24305;SDS011;12423;48.768;8.850;2024-01-16T03:56:00;6.05;;;2.85;;
24305;SDS011;12423;48.768;8.850;2024-01-16T03:58:28;11.40;;;4.55;;
24305;SDS011;12423;48.768;8.850;2024-01-16T04:00:56;10.32;;;3.83;;
24305;SDS011;12423;48.768;8.850;2024-01-16T04:03:24;16.13;;;4.85;;
24305;SDS011;12423;48.768;8.850;2024-01-16T04:05:53;13.60;;;4.05;;
24305;SDS011;12423;48.768;8.850;2024-01-16T04:08:21;27.60;;;7.20;;
24305;SDS011;12423;48.768;8.850;2024-01-16T04:10:49;15.20;;;5.03;;
24305;SDS011;12423;48.768;8.850;2024-01-16T04:13:17;27.35;;;6.40;;
24305;SDS011;12423;48.768;8.850;2024-01-16T04:15:45;16.70;;;4.53;;
24305;SDS011;12423;48.768;8.850;2024-01-16T04:18:12;12.77;;;5.70;;
24305;SDS011;12423;48.768;8.850;2024-01-16T04:20:40;11.07;;;3.95;;
24305;SDS011;12423;48.768;8.850;2024-01-16T04:23:09;12.07;;;3.83;;
24305;SDS011;12423;48.768;8.850;2024-01-16T04:25:38;11.63;;;3.90;;
24305;SDS011;12423;48.768;8.850;2024-01-16T04:28:06;8.38;;;3.33;;
24305;SDS011;12423;48.768;8.850;2024-01-16T04:30:33;7.15;;;3.10;;
24305;SDS011;12423;48.768;8.850;2024-01-16T04:33:02;8.20;;;2.88;;
24305;SDS011;12423;48.768;8.850;2024-01-16T04:35:30;9.98;;;3.20;;
24305;SDS011;12423;48.768;8.850;2024-01-16T04:37:58;9.05;;;3.00;;
24305;SDS011;12423;48.768;8.850;2024-01-16T04:40:27;7.30;;;3.45;;
24305;SDS011;12423;48.768;8.850;2024-01-16T04:42:55;7.00;;;3.15;;
24305;SDS011;12423;48.768;8.850;2024-01-16T04:45:22;4.43;;;2.85;;
24305;SDS011;12423;48.768;8.850;2024-01-16T04:47:50;3.90;;;2.20;;
24305;SDS011;12423;48.768;8.850;2024-01-16T04:50:18;4.18;;;1.73;;
24305;SDS011;12423;48.768;8.850;2024-01-16T04:52:46;5.50;;;2.03;;
24305;SDS011;12423;48.768;8.850;2024-01-16T04:55:16;42.22;;;11.77;;
24305;SDS011;12423;48.768;8.850;2024-01-16T04:57:45;28.17;;;9.82;;
24305;SDS011;12423;48.768;8.850;2024-01-16T05:00:13;20.50;;;7.03;;
24305;SDS011;12423;48.768;8.850;2024-01-16T05:02:41;15.33;;;5.83;;
24305;SDS011;12423;48.768;8.850;2024-01-16T05:05:09;14.00;;;5.93;;
24305;SDS011;12423;48.768;8.850;2024-01-16T05:07:37;8.88;;;2.60;;
24305;SDS011;12423;48.768;8.850;2024-01-16T05:10:05;6.85;;;2.92;;
24305;SDS011;12423;48.768;8.850;2024-01-16T05:12:36;6.85;;;2.30;;
24305;SDS011;12423;48.768;8.850;2024-01-16T05:15:06;5.70;;;2.28;;
24305;SDS011;12423;48.768;8.850;2024-01-16T05:17:35;5.88;;;2.67;;
24305;SDS011;12423;48.768;8.850;2024-01-16T05:20:03;6.55;;;2.55;;
24305;SDS011;12423;48.768;8.850;2024-01-16T05:22:31;6.38;;;2.22;;
24305;SDS011;12423;48.768;8.850;2024-01-16T05:24:59;4.22;;;2.00;;
24305;SDS011;12423;48.768;8.850;2024-01-16T05:27:27;9.13;;;4.43;;
24305;SDS011;12423;48.768;8.850;2024-01-16T05:29:55;12.68;;;4.15;;
24305;SDS011;12423;48.768;8.850;2024-01-16T05:32:24;6.63;;;3.38;;
24305;SDS011;12423;48.768;8.850;2024-01-16T05:34:52;6.93;;;3.58;;
24305;SDS011;12423;48.768;8.850;2024-01-16T05:37:20;9.52;;;4.40;;
24305;SDS011;12423;48.768;8.850;2024-01-16T05:39:48;12.32;;;5.47;;
24305;SDS011;12423;48.768;8.850;2024-01-16T05:42:16;11.00;;;3.67;;
24305;SDS011;12423;48.768;8.850;2024-01-16T05:44:43;3.40;;;2.38;;
24305;SDS011;12423;48.768;8.850;2024-01-16T05:47:11;3.70;;;1.98;;
24305;SDS011;12423;48.768;8.850;2024-01-16T05:49:40;4.28;;;1.90;;
24305;SDS011;12423;48.768;8.850;2024-01-16T05:52:09;4.95;;;2.20;;
24305;SDS011;12423;48.768;8.850;2024-01-16T05:54:37;6.57;;;2.92;;
24305;SDS011;12423;48.768;8.850;2024-01-16T05:57:04;3.40;;;2.13;;
24305;SDS011;12423;48.768;8.850;2024-01-16T05:59:32;4.55;;;2.13;;
24305;SDS011;12423;48.768;8.850;2024-01-16T06:02:00;7.82;;;2.53;;
24305;SDS011;12423;48.768;8.850;2024-01-16T06:04:28;4.22;;;2.22;;
24305;SDS011;12423;48.768;8.850;2024-01-16T06:06:57;4.72;;;2.38;;
24305;SDS011;12423;48.768;8.850;2024-01-16T06:11:52;4.00;;;1.33;;
24305;SDS011;12423;48.768;8.850;2024-01-16T06:14:20;6.82;;;2.35;;
24305;SDS011;12423;48.768;8.850;2024-01-16T06:16:48;5.97;;;2.33;;
24305;SDS011;12423;48.768;8.850;2024-01-16T06:19:17;6.30;;;2.75;;
24305;SDS011;12423;48.768;8.850;2024-01-16T06:21:45;9.57;;;3.70;;
24305;SDS011;12423;48.768;8.850;2024-01-16T06:24:14;5.75;;;3.15;;
24305;SDS011;12423;48.768;8.850;2024-01-16T06:26:41;8.18;;;2.90;;
24305;SDS011;12423;48.768;8.850;2024-01-16T06:29:09;5.22;;;3.08;;
24305;SDS011;12423;48.768;8.850;2024-01-16T06:31:53;8.48;;;3.75;;
24305;SDS011;12423;48.768;8.850;2024-01-16T06:34:21;7.25;;;3.22;;
24305;SDS011;12423;48.768;8.850;2024-01-16T06:36:49;6.05;;;2.72;;
24305;SDS011;12423;48.768;8.850;2024-01-16T06:39:18;5.00;;;3.15;;
24305;SDS011;12423;48.768;8.850;2024-01-16T06:44:13;7.15;;;3.65;;
24305;SDS011;12423;48.768;8.850;2024-01-16T06:46:41;10.95;;;4.22;;
24305;SDS011;12423;48.768;8.850;2024-01-16T06:49:09;9.45;;;3.35;;
24305;SDS011;12423;48.768;8.850;2024-01-16T06:51:37;5.45;;;2.90;;
24305;SDS011;12423;48.768;8.850;2024-01-16T06:54:05;7.25;;;3.75;;
24305;SDS011;12423;48.768;8.850;2024-01-16T06:56:34;8.25;;;4.40;;
24305;SDS011;12423;48.768;8.850;2024-01-16T07:01:31;6.18;;;3.35;;
24305;SDS011;12423;48.768;8.850;2024-01-16T07:03:59;8.05;;;4.07;;
24305;SDS011;12423;48.768;8.850;2024-01-16T07:06:28;8.70;;;3.65;;
24305;SDS011;12423;48.768;8.850;2024-01-16T07:08:55;7.88;;;3.50;;
24305;SDS011;12423;48.768;8.850;2024-01-16T07:11:23;12.65;;;4.15;;
24305;SDS011;12423;48.768;8.850;2024-01-16T07:13:52;12.77;;;5.13;;
24305;SDS011;12423;48.768;8.850;2024-01-16T07:16:20;21.98;;;5.53;;
24305;SDS011;12423;48.768;8.850;2024-01-16T07:18:48;18.23;;;5.55;;
24305;SDS011;12423;48.768;8.850;2024-01-16T07:21:17;12.27;;;4.60;;
24305;SDS011;12423;48.768;8.850;2024-01-16T07:23:45;20.65;;;6.90;;
24305;SDS011;12423;48.768;8.850;2024-01-16T07:26:13;25.35;;;8.75;;
24305;SDS011;12423;48.768;8.850;2024-01-16T07:28:41;25.48;;;9.60;;
24305;SDS011;12423;48.768;8.850;2024-01-16T07:31:10;21.23;;;9.30;;
24305;SDS011;12423;48.768;8.850;2024-01-16T07:33:38;17.40;;;6.43;;
24305;SDS011;12423;48.768;8.850;2024-01-16T07:36:07;14.85;;;6.32;;
24305;SDS011;12423;48.768;8.850;2024-01-16T07:38:36;10.85;;;4.97;;
24305;SDS011;12423;48.768;8.850;2024-01-16T07:41:04;7.82;;;2.75;;
24305;SDS011;12423;48.768;8.850;2024-01-16T07:43:32;5.55;;;3.10;;
24305;SDS011;12423;48.768;8.850;2024-01-16T07:46:01;10.10;;;3.45;;
24305;SDS011;12423;48.768;8.850;2024-01-16T07:48:30;7.88;;;2.90;;
24305;SDS011;12423;48.768;8.850;2024-01-16T07:53:26;4.53;;;1.95;;
24305;SDS011;12423;48.768;8.850;2024-01-16T07:55:54;8.43;;;2.27;;
24305;SDS011;12423;48.768;8.850;2024-01-16T07:58:22;3.45;;;1.58;;
24305;SDS011;12423;48.768;8.850;2024-01-16T08:00:50;2.10;;;1.05;;
24305;SDS011;12423;48.768;8.850;2024-01-16T08:03:18;3.28;;;1.55;;
24305;SDS011;12423;48.768;8.850;2024-01-16T08:05:47;0.43;;;0.22;;
24305;SDS011;12423;48.768;8.850;2024-01-16T08:10:42;3.47;;;1.80;;
24305;SDS011;12423;48.768;8.850;2024-01-16T08:13:10;5.00;;;2.05;;
24305;SDS011;12423;48.768;8.850;2024-01-16T08:15:38;2.95;;;1.33;;
24305;SDS011;12423;48.768;8.850;2024-01-16T08:18:06;4.13;;;1.58;;
24305;SDS011;12423;48.768;8.850;2024-01-16T08:20:34;1.83;;;1.20;;
24305;SDS011;12423;48.768;8.850;2024-01-16T08:23:03;3.50;;;1.85;;
24305;SDS011;12423;48.768;8.850;2024-01-16T08:25:31;3.55;;;1.45;;
24305;SDS011;12423;48.768;8.850;2024-01-16T08:27:59;3.35;;;1.25;;
24305;SDS011;12423;48.768;8.850;2024-01-16T08:30:27;2.37;;;1.07;;
24305;SDS011;12423;48.768;8.850;2024-01-16T08:32:55;1.75;;;1.13;;
24305;SDS011;12423;48.768;8.850;2024-01-16T08:35:22;4.38;;;2.08;;
24305;SDS011;12423;48.768;8.850;2024-01-16T08:37:50;4.90;;;1.90;;
24305;SDS011;12423;48.768;8.850;2024-01-16T08:40:19;6.38;;;2.47;;
24305;SDS011;12423;48.768;8.850;2024-01-16T08:42:47;2.67;;;1.33;;
24305;SDS011;12423;48.768;8.850;2024-01-16T08:45:23;3.35;;;1.73;;
24305;SDS011;12423;48.768;8.850;2024-01-16T08:47:52;2.70;;;1.25;;
24305;SDS011;12423;48.768;8.850;2024-01-16T08:50:20;5.15;;;2.20;;
24305;SDS011;12423;48.768;8.850;2024-01-16T08:52:48;4.25;;;1.67;;
24305;SDS011;12423;48.768;8.850;2024-01-16T08:55:16;2.63;;;1.42;;
24305;SDS011;12423;48.768;8.850;2024-01-16T08:57:45;2.30;;;1.15;;
24305;SDS011;12423;48.768;8.850;2024-01-16T09:02:41;1.50;;;1.08;;
24305;SDS011;12423;48.768;8.850;2024-01-16T09:05:09;2.10;;;0.98;;
24305;SDS011;12423;48.768;8.850;2024-01-16T09:10:06;3.22;;;1.60;;
24305;SDS011;12423;48.768;8.850;2024-01-16T09:12:34;6.13;;;1.80;;
24305;SDS011;12423;48.768;8.850;2024-01-16T09:15:04;4.78;;;1.77;;
24305;SDS011;12423;48.768;8.850;2024-01-16T09:17:33;3.65;;;1.83;;
24305;SDS011;12423;48.768;8.850;2024-01-16T09:20:01;2.70;;;1.27;;
24305;SDS011;12423;48.768;8.850;2024-01-16T09:22:29;5.97;;;1.77;;
24305;SDS011;12423;48.768;8.850;2024-01-16T09:24:57;4.03;;;1.58;;
24305;SDS011;12423;48.768;8.850;2024-01-16T09:27:25;3.55;;;2.03;;
24305;SDS011;12423;48.768;8.850;2024-01-16T09:29:52;2.92;;;1.40;;
24305;SDS011;12423;48.768;8.850;2024-01-16T09:32:22;3.80;;;1.75;;
24305;SDS011;12423;48.768;8.850;2024-01-16T09:37:17;4.13;;;1.67;;
24305;SDS011;12423;48.768;8.850;2024-01-16T09:39:45;3.63;;;1.75;;
24305;SDS011;12423;48.768;8.850;2024-01-16T09:42:13;4.55;;;2.10;;
24305;SDS011;12423;48.768;8.850;2024-01-16T09:44:41;6.50;;;2.20;;
24305;SDS011;12423;48.768;8.850;2024-01-16T09:47:09;4.07;;;1.90;;
24305;SDS011;12423;48.768;8.850;2024-01-16T09:49:39;9.65;;;3.78;;
24305;SDS011;12423;48.768;8.850;2024-01-16T09:52:09;6.78;;;2.90;;
24305;SDS011;12423;48.768;8.850;2024-01-16T09:54:37;9.20;;;3.90;;
24305;SDS011;12423;48.768;8.850;2024-01-16T09:57:05;7.72;;;3.85;;
24305;SDS011;12423;48.768;8.850;2024-01-16T09:59:35;7.40;;;4.10;;
24305;SDS011;12423;48.768;8.850;2024-01-16T10:02:06;7.50;;;4.35;;
24305;SDS011;12423;48.768;8.850;2024-01-16T10:04:35;6.95;;;3.47;;
24305;SDS011;12423;48.768;8.850;2024-01-16T10:07:04;6.57;;;2.63;;
24305;SDS011;12423;48.768;8.850;2024-01-16T10:09:35;6.20;;;2.60;;
24305;SDS011;12423;48.768;8.850;2024-01-16T10:12:03;6.65;;;2.78;;
24305;SDS011;12423;48.768;8.850;2024-01-16T10:14:31;7.25;;;3.20;;
24305;SDS011;12423;48.768;8.850;2024-01-16T10:17:00;6.50;;;2.85;;
24305;SDS011;12423;48.768;8.850;2024-01-16T10:19:32;11.27;;;2.70;;
24305;SDS011;12423;48.768;8.850;2024-01-16T10:22:20;7.35;;;3.00;;
24305;SDS011;12423;48.768;8.850;2024-01-16T10:25:00;7.47;;;2.95;;
24305;SDS011;12423;48.768;8.850;2024-01-16T10:27:32;5.32;;;2.53;;
24305;SDS011;12423;48.768;8.850;2024-01-16T10:30:00;4.95;;;2.42;;
24305;SDS011;12423;48.768;8.850;2024-01-16T10:32:29;6.88;;;3.17;;
24305;SDS011;12423;48.768;8.850;2024-01-16T10:35:02;6.00;;;2.42;;
24305;SDS011;12423;48.768;8.850;2024-01-16T10:37:32;4.97;;;2.83;;
24305;SDS011;12423;48.768;8.850;2024-01-16T10:40:08;9.05;;;2.72;;
24305;SDS011;12423;48.768;8.850;2024-01-16T10:42:37;6.35;;;3.17;;
24305;SDS011;12423;48.768;8.850;2024-01-16T10:45:05;8.18;;;4.03;;
24305;SDS011;12423;48.768;8.850;2024-01-16T10:47:34;8.43;;;4.18;;
24305;SDS011;12423;48.768;8.850;2024-01-16T10:50:04;7.40;;;3.72;;
24305;SDS011;12423;48.768;8.850;2024-01-16T10:52:37;8.45;;;4.03;;
24305;SDS011;12423;48.768;8.850;2024-01-16T10:55:15;8.32;;;3.70;;
24305;SDS011;12423;48.768;8.850;2024-01-16T10:57:48;7.57;;;3.75;;
24305;SDS011;12423;48.768;8.850;2024-01-16T11:00:17;15.70;;;7.28;;
24305;SDS011;12423;48.768;8.850;2024-01-16T11:02:51;9.27;;;5.10;;
24305;SDS011;12423;48.768;8.850;2024-01-16T11:05:26;13.00;;;3.92;;
24305;SDS011;12423;48.768;8.850;2024-01-16T11:07:59;6.93;;;3.33;;
24305;SDS011;12423;48.768;8.850;2024-01-16T11:10:30;11.35;;;4.25;;
24305;SDS011;12423;48.768;8.850;2024-01-16T11:12:59;6.68;;;2.08;;
24305;SDS011;12423;48.768;8.850;2024-01-16T11:15:28;4.47;;;1.85;;
24305;SDS011;12423;48.768;8.850;2024-01-16T11:17:56;4.25;;;1.73;;
24305;SDS011;12423;48.768;8.850;2024-01-16T11:20:24;5.00;;;1.90;;
24305;SDS011;12423;48.768;8.850;2024-01-16T11:23:14;4.43;;;2.08;;
24305;SDS011;12423;48.768;8.850;2024-01-16T11:25:42;4.75;;;1.98;;
24305;SDS011;12423;48.768;8.850;2024-01-16T11:28:11;3.20;;;1.67;;
24305;SDS011;12423;48.768;8.850;2024-01-16T11:35:52;4.97;;;1.90;;
24305;SDS011;12423;48.768;8.850;2024-01-16T11:38:21;4.07;;;1.70;;
24305;SDS011;12423;48.768;8.850;2024-01-16T11:40:49;6.30;;;1.83;;
24305;SDS011;12423;48.768;8.850;2024-01-16T11:46:04;5.60;;;2.38;;
24305;SDS011;12423;48.768;8.850;2024-01-16T11:48:33;6.40;;;2.33;;
24305;SDS011;12423;48.768;8.850;2024-01-16T11:51:21;3.17;;;1.35;;
24305;SDS011;12423;48.768;8.850;2024-01-16T11:53:52;4.78;;;1.23;;
24305;SDS011;12423;48.768;8.850;2024-01-16T11:56:33;5.07;;;2.20;;
24305;SDS011;12423;48.768;8.850;2024-01-16T12:02:12;2.38;;;1.23;;
24305;SDS011;12423;48.768;8.850;2024-01-16T12:04:52;7.93;;;1.65;;
24305;SDS011;12423;48.768;8.850;2024-01-16T12:07:20;3.90;;;1.67;;
24305;SDS011;12423;48.768;8.850;2024-01-16T12:09:49;4.45;;;1.85;;
24305;SDS011;12423;48.768;8.850;2024-01-16T12:12:17;3.40;;;1.73;;
24305;SDS011;12423;48.768;8.850;2024-01-16T12:14:53;4.45;;;1.83;;
24305;SDS011;12423;48.768;8.850;2024-01-16T12:17:21;3.33;;;1.52;;
24305;SDS011;12423;48.768;8.850;2024-01-16T12:19:49;2.67;;;1.30;;
24305;SDS011;12423;48.768;8.850;2024-01-16T12:22:17;3.50;;;1.55;;
24305;SDS011;12423;48.768;8.850;2024-01-16T12:24:47;3.25;;;1.40;;
24305;SDS011;12423;48.768;8.850;2024-01-16T12:27:17;3.55;;;1.50;;
24305;SDS011;12423;48.768;8.850;2024-01-16T12:29:44;3.30;;;1.70;;
24305;SDS011;12423;48.768;8.850;2024-01-16T12:32:13;3.70;;;1.42;;
24305;SDS011;12423;48.768;8.850;2024-01-16T12:34:46;3.50;;;1.30;;
24305;SDS011;12423;48.768;8.850;2024-01-16T12:37:16;2.70;;;1.17;;
24305;SDS011;12423;48.768;8.850;2024-01-16T12:39:43;2.58;;;1.20;;
24305;SDS011;12423;48.768;8.850;2024-01-16T12:42:13;3.60;;;1.42;;
24305;SDS011;12423;48.768;8.850;2024-01-16T12:44:41;4.38;;;1.30;;
24305;SDS011;12423;48.768;8.850;2024-01-16T12:47:09;2.55;;;1.10;;
24305;SDS011;12423;48.768;8.850;2024-01-16T12:49:40;4.07;;;1.63;;
24305;SDS011;12423;48.768;8.850;2024-01-16T12:52:17;3.42;;;1.42;;
24305;SDS011;12423;48.768;8.850;2024-01-16T12:54:47;2.10;;;0.90;;
24305;SDS011;12423;48.768;8.850;2024-01-16T12:57:18;3.25;;;1.27;;
24305;SDS011;12423;48.768;8.850;2024-01-16T12:59:47;2.25;;;1.08;;
24305;SDS011;12423;48.768;8.850;2024-01-16T13:02:19;3.95;;;1.50;;
24305;SDS011;12423;48.768;8.850;2024-01-16T13:04:55;2.45;;;1.10;;
24305;SDS011;12423;48.768;8.850;2024-01-16T13:07:24;4.38;;;1.55;;
24305;SDS011;12423;48.768;8.850;2024-01-16T13:10:06;3.55;;;1.27;;
24305;SDS011;12423;48.768;8.850;2024-01-16T13:12:36;3.17;;;1.23;;
24305;SDS011;12423;48.768;8.850;2024-01-16T13:15:05;3.45;;;1.30;;
24305;SDS011;12423;48.768;8.850;2024-01-16T13:17:33;2.55;;;1.45;;
24305;SDS011;12423;48.768;8.850;2024-01-16T13:20:02;2.05;;;1.20;;
24305;SDS011;12423;48.768;8.850;2024-01-16T13:22:33;2.53;;;1.35;;
24305;SDS011;12423;48.768;8.850;2024-01-16T13:25:11;3.67;;;1.43;;
24305;SDS011;12423;48.768;8.850;2024-01-16T13:27:40;3.50;;;1.25;;
24305;SDS011;12423;48.768;8.850;2024-01-16T13:30:08;4.13;;;1.20;;
24305;SDS011;12423;48.768;8.850;2024-01-16T13:32:38;5.43;;;1.38;;
24305;SDS011;12423;48.768;8.850;2024-01-16T13:35:06;3.95;;;1.40;;
24305;SDS011;12423;48.768;8.850;2024-01-16T13:37:35;2.47;;;1.05;;
24305;SDS011;12423;48.768;8.850;2024-01-16T13:40:05;2.95;;;1.25;;
24305;SDS011;12423;48.768;8.850;2024-01-16T13:42:38;2.90;;;1.25;;
24305;SDS011;12423;48.768;8.850;2024-01-16T13:45:07;3.42;;;1.50;;
24305;SDS011;12423;48.768;8.850;2024-01-16T13:47:36;3.05;;;1.52;;
24305;SDS011;12423;48.768;8.850;2024-01-16T13:50:06;2.67;;;1.42;;
24305;SDS011;12423;48.768;8.850;2024-01-16T13:52:35;3.10;;;1.58;;
24305;SDS011;12423;48.768;8.850;2024-01-16T13:55:03;2.22;;;1.30;;
24305;SDS011;12423;48.768;8.850;2024-01-16T14:00:01;5.07;;;1.80;;
24305;SDS011;12423;48.768;8.850;2024-01-16T14:02:38;4.03;;;1.98;;
24305;SDS011;12423;48.768;8.850;2024-01-16T14:05:07;4.95;;;1.73;;
24305;SDS011;12423;48.768;8.850;2024-01-16T14:07:37;4.57;;;1.40;;
24305;SDS011;12423;48.768;8.850;2024-01-16T14:10:05;4.00;;;1.70;;
24305;SDS011;12423;48.768;8.850;2024-01-16T14:12:36;6.47;;;1.90;;
24305;SDS011;12423;48.768;8.850;2024-01-16T14:15:04;4.07;;;1.70;;
24305;SDS011;12423;48.768;8.850;2024-01-16T14:17:43;5.60;;;1.40;;
24305;SDS011;12423;48.768;8.850;2024-01-16T14:20:12;3.13;;;1.40;;
24305;SDS011;12423;48.768;8.850;2024-01-16T14:22:41;3.90;;;1.48;;
24305;SDS011;12423;48.768;8.850;2024-01-16T14:27:39;2.75;;;1.38;;
24305;SDS011;12423;48.768;8.850;2024-01-16T14:30:09;4.80;;;2.00;;
24305;SDS011;12423;48.768;8.850;2024-01-16T14:32:40;5.03;;;1.75;;
24305;SDS011;12423;48.768;8.850;2024-01-16T14:35:10;4.32;;;1.45;;
24305;SDS011;12423;48.768;8.850;2024-01-16T14:37:39;3.63;;;1.65;;
24305;SDS011;12423;48.768;8.850;2024-01-16T14:40:08;2.55;;;1.10;;
24305;SDS011;12423;48.768;8.850;2024-01-16T14:42:39;3.92;;;1.33;;
24305;SDS011;12423;48.768;8.850;2024-01-16T14:45:07;4.20;;;1.27;;
24305;SDS011;12423;48.768;8.850;2024-01-16T14:47:37;3.33;;;1.52;;
24305;SDS011;12423;48.768;8.850;2024-01-16T14:50:06;3.10;;;1.38;;
24305;SDS011;12423;48.768;8.850;2024-01-16T14:52:37;4.38;;;1.27;;
24305;SDS011;12423;48.768;8.850;2024-01-16T14:55:05;3.85;;;1.50;;
24305;SDS011;12423;48.768;8.850;2024-01-16T14:57:34;3.85;;;1.60;;
24305;SDS011;12423;48.768;8.850;2024-01-16T15:00:08;4.78;;;1.10;;
24305;SDS011;12423;48.768;8.850;2024-01-16T15:02:46;2.33;;;1.10;;
24305;SDS011;12423;48.768;8.850;2024-01-16T15:05:14;2.35;;;1.20;;
24305;SDS011;12423;48.768;8.850;2024-01-16T15:07:43;4.78;;;1.30;;
24305;SDS011;12423;48.768;8.850;2024-01-16T15:15:09;2.72;;;1.40;;
24305;SDS011;12423;48.768;8.850;2024-01-16T15:17:39;2.75;;;1.10;;
24305;SDS011;12423;48.768;8.850;2024-01-16T15:20:08;3.45;;;1.02;;
24305;SDS011;12423;48.768;8.850;2024-01-16T15:22:36;2.85;;;1.30;;
24305;SDS011;12423;48.768;8.850;2024-01-16T15:25:08;4.10;;;1.35;;
24305;SDS011;12423;48.768;8.850;2024-01-16T15:30:04;2.13;;;0.80;;
24305;SDS011;12423;48.768;8.850;2024-01-16T15:32:34;2.65;;;1.20;;
24305;SDS011;12423;48.768;8.850;2024-01-16T15:35:03;2.73;;;1.07;;
24305;SDS011;12423;48.768;8.850;2024-01-16T15:37:33;1.65;;;0.90;;
24305;SDS011;12423;48.768;8.850;2024-01-16T15:40:01;2.33;;;0.90;;
24305;SDS011;12423;48.768;8.850;2024-01-16T15:42:33;2.85;;;1.15;;
24305;SDS011;12423;48.768;8.850;2024-01-16T15:45:03;4.22;;;1.10;;
24305;SDS011;12423;48.768;8.850;2024-01-16T15:47:31;3.10;;;1.40;;
24305;SDS011;12423;48.768;8.850;2024-01-16T15:49:59;7.00;;;1.35;;
24305;SDS011;12423;48.768;8.850;2024-01-16T15:52:27;2.28;;;0.90;;
24305;SDS011;12423;48.768;8.850;2024-01-16T15:54:54;2.67;;;1.13;;
24305;SDS011;12423;48.768;8.850;2024-01-16T15:57:22;2.83;;;1.27;;